createdAt,value
2022-08-22T00:00:15.007Z,98834.84
2022-08-22T00:03:00.232Z,98841.06
2022-08-22T00:03:06.868Z,98846.78
2022-08-22T00:03:42.520Z,98837.44
2022-08-22T00:06:52.275Z,98856.63
2022-08-22T00:09:55.230Z,98827.44
2022-08-22T00:12:50.756Z,98855.09
2022-08-22T00:15:47.379Z,98815.56
2022-08-22T00:18:51.001Z,98824.94
2022-08-22T00:21:53.358Z,98824.13
2022-08-22T00:25:01.725Z,98843.63
2022-08-22T00:27:56.762Z,98789.69
2022-08-22T00:31:02.316Z,98841.38
2022-08-22T00:34:03.916Z,98842.34
2022-08-22T00:37:12.090Z,98848.63
2022-08-22T00:40:08.787Z,98841.03
2022-08-22T00:43:08.381Z,98831.72
2022-08-22T00:46:26.285Z,98830.03
2022-08-22T00:49:12.679Z,98845.53
2022-08-22T00:52:37.678Z,98828.53
2022-08-22T00:55:37.149Z,98841.38
2022-08-22T00:58:55.574Z,98851.78
2022-08-22T01:02:21.697Z,98839.75
2022-08-22T01:05:42.125Z,98842.44
2022-08-22T01:08:37.744Z,98839.84
2022-08-22T01:11:39.338Z,98847.69
2022-08-22T01:14:51.235Z,98838.19
2022-08-22T01:17:54.369Z,98846.03
2022-08-22T01:20:41.506Z,98844.34
2022-08-22T01:23:59.783Z,98845.25
2022-08-22T01:27:25.117Z,98836.78
2022-08-22T01:30:31.586Z,98823.09
2022-08-22T01:33:30.225Z,98842.06
2022-08-22T01:36:16.600Z,98843.03
2022-08-22T01:39:30.753Z,98843.97
2022-08-22T01:42:34.880Z,98820.88
2022-08-22T01:45:33.527Z,98835.44
2022-08-22T01:48:38.335Z,98844.16
2022-08-22T01:51:44.933Z,98841.63
2022-08-22T01:54:49.779Z,98849.31
2022-08-22T01:57:55.910Z,98857.09
2022-08-22T02:01:08.411Z,98832.31
2022-08-22T02:04:14.292Z,98849.53
2022-08-22T02:07:05.468Z,98847.88
2022-08-22T02:10:27.520Z,98849.59
2022-08-22T02:13:25.178Z,98849.56
2022-08-22T02:16:45.985Z,98850.53
2022-08-22T02:19:44.566Z,98847.06
2022-08-22T02:22:52.947Z,98816.22
2022-08-22T02:26:02.253Z,98848.97
2022-08-22T02:29:05.070Z,98851.53
2022-08-22T02:32:06.690Z,98850.00
2022-08-22T02:35:15.499Z,98850.03
2022-08-22T02:38:21.210Z,98850.09
2022-08-22T02:41:38.053Z,98841.50
2022-08-22T02:44:37.161Z,98841.59
2022-08-22T02:47:33.080Z,98833.88
2022-08-22T02:50:33.217Z,98809.03
2022-08-22T02:53:58.069Z,98833.97
2022-08-22T02:57:02.710Z,98838.28
2022-08-22T03:00:31.720Z,98832.25
2022-08-22T03:03:24.142Z,98772.19
2022-08-22T03:06:32.600Z,98810.00
2022-08-22T03:09:25.586Z,98831.50
2022-08-22T03:12:40.115Z,98828.03
2022-08-22T03:15:34.205Z,98789.47
2022-08-22T03:18:45.467Z,98825.50
2022-08-22T03:21:50.496Z,98829.88
2022-08-22T03:25:07.391Z,98798.09
2022-08-22T03:28:02.835Z,98826.53
2022-08-22T03:31:14.070Z,98826.50
2022-08-22T03:34:23.827Z,98830.09
2022-08-22T03:37:26.182Z,98829.19
2022-08-22T03:40:43.790Z,98832.59
2022-08-22T03:44:07.913Z,98838.69
2022-08-22T03:47:39.277Z,98833.72
2022-08-22T03:51:07.910Z,98837.22
2022-08-22T03:54:35.680Z,98839.03
2022-08-22T03:57:35.666Z,98840.03
2022-08-22T04:00:45.488Z,98846.19
2022-08-22T04:04:09.386Z,98853.16
2022-08-22T04:07:46.496Z,98860.03
2022-08-22T04:10:55.125Z,98855.66
2022-08-22T04:13:56.398Z,98861.75
2022-08-22T04:17:17.251Z,98842.91
2022-08-22T04:20:25.065Z,98846.34
2022-08-22T04:23:27.485Z,98870.53
2022-08-22T04:26:41.460Z,98858.47
2022-08-22T04:29:37.251Z,98845.56
2022-08-22T04:32:39.281Z,98848.97
2022-08-22T04:35:36.359Z,98860.19
2022-08-22T04:38:47.706Z,98826.69
2022-08-22T04:41:53.092Z,98859.31
2022-08-22T04:45:03.663Z,98872.19
2022-08-22T04:48:00.073Z,98872.97
2022-08-22T04:50:57.889Z,98834.13
2022-08-22T04:53:56.480Z,98870.06
2022-08-22T04:57:10.977Z,98842.53
2022-08-22T05:00:06.521Z,98855.53
2022-08-22T05:02:57.126Z,98834.88
2022-08-22T05:05:48.256Z,98854.63
2022-08-22T05:08:39.587Z,98873.38
2022-08-22T05:11:27.668Z,98830.19
2022-08-22T05:14:32.609Z,98878.44
2022-08-22T05:17:24.570Z,98859.06
2022-08-22T05:20:17.615Z,98861.00
2022-08-22T05:23:23.328Z,98876.38
2022-08-22T05:26:12.611Z,98875.09
2022-08-22T05:29:07.858Z,98862.28
2022-08-22T05:32:01.929Z,98834.13
2022-08-22T05:34:51.673Z,98890.06
2022-08-22T05:37:47.386Z,98895.34
2022-08-22T05:40:35.960Z,98889.59
2022-08-22T05:43:26.343Z,98870.84
2022-08-22T05:46:20.443Z,98828.06
2022-08-22T05:49:38.775Z,98842.84
2022-08-22T05:52:42.545Z,98854.66
2022-08-22T05:55:47.140Z,98889.88
2022-08-22T05:58:39.691Z,98887.16
2022-08-22T06:01:41.532Z,98886.25
2022-08-22T06:04:43.116Z,98879.75
2022-08-22T06:07:43.751Z,98842.72
2022-08-22T06:10:48.283Z,98881.72
2022-08-22T06:13:41.178Z,98852.19
2022-08-22T06:16:36.835Z,98882.06
2022-08-22T06:19:24.275Z,98879.09
2022-08-22T06:22:18.623Z,98873.28
2022-08-22T06:25:19.748Z,98880.78
2022-08-22T06:28:13.761Z,98888.78
2022-08-22T06:31:03.421Z,98828.38
2022-08-22T06:34:27.480Z,98890.56
2022-08-22T06:37:20.745Z,98898.66
2022-08-22T06:40:10.645Z,98893.81
2022-08-22T06:42:58.473Z,98862.38
2022-08-22T06:45:45.163Z,98878.34
2022-08-22T06:48:33.170Z,98877.09
2022-08-22T06:51:21.117Z,98884.19
2022-08-22T06:54:17.768Z,98894.56
2022-08-22T06:57:06.572Z,98869.84
2022-08-22T06:59:55.419Z,98910.13
2022-08-22T07:02:48.861Z,98905.47
2022-08-22T07:05:39.072Z,98902.31
2022-08-22T07:08:28.571Z,98899.09
2022-08-22T07:11:21.762Z,98892.13
2022-08-22T07:14:12.145Z,98883.84
2022-08-22T07:17:05.009Z,98901.94
2022-08-22T07:20:00.118Z,98893.56
2022-08-22T07:22:58.577Z,98896.13
2022-08-22T07:25:54.861Z,98886.81
2022-08-22T07:28:57.948Z,98862.03
2022-08-22T07:31:59.334Z,98893.88
2022-08-22T07:34:51.859Z,98893.81
2022-08-22T07:38:16.009Z,98900.00
2022-08-22T07:41:11.451Z,98868.34
2022-08-22T07:44:23.838Z,98901.91
2022-08-22T07:47:21.080Z,98905.31
2022-08-22T07:50:20.066Z,98882.72
2022-08-22T07:53:27.850Z,98873.31
2022-08-22T07:56:19.582Z,98901.13
2022-08-22T07:59:12.922Z,98872.97
2022-08-22T08:02:01.737Z,98909.06
2022-08-22T08:04:51.110Z,98895.34
2022-08-22T08:07:43.739Z,98919.69
2022-08-22T08:10:34.773Z,98906.56
2022-08-22T08:13:43.953Z,98889.88
2022-08-22T08:16:43.059Z,98911.78
2022-08-22T08:19:33.329Z,98889.88
2022-08-22T08:22:24.747Z,98900.69
2022-08-22T08:25:17.708Z,98871.38
2022-08-22T08:28:23.460Z,98905.63
2022-08-22T08:31:09.959Z,98905.19
2022-08-22T08:34:05.135Z,98882.53
2022-08-22T08:37:01.054Z,98883.03
2022-08-22T08:39:53.314Z,98888.03
2022-08-22T08:43:06.228Z,98913.25
2022-08-22T08:46:15.222Z,98896.50
2022-08-22T08:49:11.238Z,98899.78
2022-08-22T08:52:21.851Z,98875.34
2022-08-22T08:55:41.166Z,98895.78
2022-08-22T08:58:43.244Z,98894.69
2022-08-22T09:01:38.564Z,98892.25
2022-08-22T09:04:57.344Z,98893.03
2022-08-22T09:08:17.202Z,98895.00
2022-08-22T09:11:28.235Z,98889.72
2022-08-22T09:14:26.946Z,98887.09
2022-08-22T09:17:36.460Z,98886.94
2022-08-22T09:20:46.344Z,98888.78
2022-08-22T09:24:14.352Z,98883.63
2022-08-22T09:27:11.944Z,98855.16
2022-08-22T09:30:05.419Z,98859.66
2022-08-22T09:33:12.552Z,98872.91
2022-08-22T09:36:06.897Z,98854.78
2022-08-22T09:39:19.079Z,98890.63
2022-08-22T09:42:28.051Z,98888.25
2022-08-22T09:45:36.326Z,98894.41
2022-08-22T09:48:47.296Z,98893.09
2022-08-22T09:51:44.862Z,98886.22
2022-08-22T09:54:43.506Z,98899.63
2022-08-22T09:57:40.241Z,98881.28
2022-08-22T10:00:42.860Z,98881.75
2022-08-22T10:04:06.994Z,98889.75
2022-08-22T10:07:11.715Z,98890.94
2022-08-22T10:10:17.156Z,98885.44
2022-08-22T10:13:35.951Z,98881.25
2022-08-22T10:16:30.761Z,98873.53
2022-08-22T10:19:46.789Z,98873.44
2022-08-22T10:22:52.636Z,98869.34
2022-08-22T10:25:48.162Z,98855.97
2022-08-22T10:28:42.010Z,98848.47
2022-08-22T10:31:58.768Z,98838.91
2022-08-22T10:34:51.889Z,98852.19
2022-08-22T10:37:48.901Z,98853.94
2022-08-22T10:40:42.231Z,98856.69
2022-08-22T10:43:40.926Z,98844.38
2022-08-22T10:46:58.698Z,98845.44
2022-08-22T10:49:56.825Z,98843.44
2022-08-22T10:52:49.274Z,98819.09
2022-08-22T10:55:40.714Z,98808.72
2022-08-22T10:58:35.418Z,98832.72
2022-08-22T11:01:38.613Z,98830.97
2022-08-22T11:04:39.144Z,98804.66
2022-08-22T11:07:28.839Z,98835.84
2022-08-22T11:10:30.406Z,98828.19
2022-08-22T11:13:29.308Z,98802.94
2022-08-22T11:16:18.556Z,98810.50
2022-08-22T11:19:26.220Z,98817.91
2022-08-22T11:22:30.671Z,98814.97
2022-08-22T11:25:36.193Z,98812.44
2022-08-22T11:28:44.253Z,98809.13
2022-08-22T11:31:51.254Z,98812.38
2022-08-22T11:35:00.522Z,98813.59
2022-08-22T11:37:51.271Z,98799.09
2022-08-22T11:41:00.517Z,98780.25
2022-08-22T11:44:00.346Z,98798.00
2022-08-22T11:46:54.988Z,98787.66
2022-08-22T11:50:13.480Z,98794.28
2022-08-22T11:53:36.821Z,98787.44
2022-08-22T11:56:30.429Z,98755.16
2022-08-22T11:59:28.262Z,98785.91
2022-08-22T12:02:21.505Z,98788.91
2022-08-22T12:05:24.524Z,98781.38
2022-08-22T12:08:37.759Z,98783.34
2022-08-22T12:12:08.062Z,98781.13
2022-08-22T12:15:19.258Z,98768.06
2022-08-22T12:18:33.058Z,98760.31
2022-08-22T12:21:38.503Z,98768.22
2022-08-22T12:24:43.645Z,98760.19
2022-08-22T12:27:48.168Z,98762.59
2022-08-22T12:30:54.902Z,98765.44
2022-08-22T12:33:48.287Z,98763.38
2022-08-22T12:36:55.699Z,98757.88
2022-08-22T12:40:08.834Z,98756.72
2022-08-22T12:43:42.502Z,98762.63
2022-08-22T12:47:14.654Z,98733.13
2022-08-22T12:50:19.783Z,98754.13
2022-08-22T12:53:33.009Z,98746.19
2022-08-22T12:56:51.675Z,98742.75
2022-08-22T12:59:45.225Z,98746.66
2022-08-22T13:02:35.045Z,98738.97
2022-08-22T13:05:26.219Z,98738.75
2022-08-22T13:08:21.292Z,98701.53
2022-08-22T13:11:22.971Z,98734.94
2022-08-22T13:14:15.652Z,98710.81
2022-08-22T13:17:23.617Z,98726.16
2022-08-22T13:20:22.229Z,98731.66
2022-08-22T13:23:17.615Z,98718.22
2022-08-22T13:26:34.407Z,98729.53
2022-08-22T13:29:42.799Z,98697.75
2022-08-22T13:32:44.608Z,98694.94
2022-08-22T13:35:44.663Z,98702.28
2022-08-22T13:38:47.081Z,98678.78
2022-08-22T13:41:44.199Z,98665.97
2022-08-22T13:44:44.993Z,98713.34
2022-08-22T13:47:34.892Z,98717.69
2022-08-22T13:50:25.183Z,98717.41
2022-08-22T13:53:24.530Z,98673.53
2022-08-22T13:56:19.471Z,98678.13
2022-08-22T13:59:34.256Z,98671.88
2022-08-22T14:02:23.429Z,98708.47
2022-08-22T14:05:25.975Z,98708.28
2022-08-22T14:08:18.563Z,98686.50
2022-08-22T14:11:21.421Z,98683.19
2022-08-22T14:14:08.865Z,98659.66
2022-08-22T14:16:58.157Z,98676.22
2022-08-22T14:19:59.013Z,98699.72
2022-08-22T14:23:04.030Z,98669.56
2022-08-22T14:25:51.979Z,98688.50
2022-08-22T14:28:38.969Z,98683.59
2022-08-22T14:31:28.279Z,98681.66
2022-08-22T14:34:15.882Z,98689.88
2022-08-22T14:37:15.869Z,98638.28
2022-08-22T14:40:21.554Z,98676.41
2022-08-22T14:43:22.519Z,98687.97
2022-08-22T14:46:14.605Z,98678.16
2022-08-22T14:49:26.817Z,98645.69
2022-08-22T14:52:40.661Z,98665.66
2022-08-22T14:55:27.166Z,98655.25
2022-08-22T14:58:26.453Z,98670.81
2022-08-22T15:01:18.276Z,98658.59
2022-08-22T15:04:08.794Z,98668.00
2022-08-22T15:06:58.803Z,98653.16
2022-08-22T15:10:21.630Z,98666.41
2022-08-22T15:13:10.096Z,98620.00
2022-08-22T15:16:03.553Z,98642.09
2022-08-22T15:18:53.137Z,98616.03
2022-08-22T15:21:41.339Z,98651.81
2022-08-22T15:24:28.606Z,98663.41
2022-08-22T15:27:19.488Z,98636.56
2022-08-22T15:30:18.764Z,98659.72
2022-08-22T15:33:10.665Z,98649.72
2022-08-22T15:36:15.880Z,98634.63
2022-08-22T15:39:30.201Z,98654.88
2022-08-22T15:42:26.062Z,98634.88
2022-08-22T15:45:33.759Z,98627.34
2022-08-22T15:48:31.957Z,98654.44
2022-08-22T15:51:41.405Z,98638.31
2022-08-22T15:54:46.802Z,98643.22
2022-08-22T15:57:40.286Z,98627.78
2022-08-22T16:01:05.547Z,98594.31
2022-08-22T16:04:12.530Z,98653.88
2022-08-22T16:07:01.217Z,98651.47
2022-08-22T16:09:52.086Z,98614.56
2022-08-22T16:12:44.330Z,98657.72
2022-08-22T16:15:52.904Z,98652.38
2022-08-22T16:18:44.956Z,98654.41
2022-08-22T16:21:31.176Z,98657.91
2022-08-22T16:24:17.817Z,98655.00
2022-08-22T16:27:25.689Z,98650.75
2022-08-22T16:30:14.824Z,98654.50
2022-08-22T16:33:01.502Z,98603.22
2022-08-22T16:36:25.753Z,98657.13
2022-08-22T16:39:21.307Z,98647.91
2022-08-22T16:42:19.397Z,98648.69
2022-08-22T16:45:27.418Z,98643.94
2022-08-22T16:48:23.500Z,98646.66
2022-08-22T16:51:18.632Z,98642.97
2022-08-22T16:54:08.833Z,98648.59
2022-08-22T16:57:17.538Z,98634.03
2022-08-22T17:00:13.426Z,98646.47
2022-08-22T17:03:18.413Z,98657.63
2022-08-22T17:06:28.401Z,98658.31
2022-08-22T17:09:47.544Z,98649.59
2022-08-22T17:13:06.250Z,98653.16
2022-08-22T17:16:33.977Z,98650.97
2022-08-22T17:19:52.574Z,98636.00
2022-08-22T17:22:45.172Z,98653.09
2022-08-22T17:25:53.258Z,98657.38
2022-08-22T17:28:48.555Z,98624.56
2022-08-22T17:31:55.496Z,98646.63
2022-08-22T17:35:21.767Z,98651.00
2022-08-22T17:38:24.979Z,98650.91
2022-08-22T17:41:29.462Z,98670.16
2022-08-22T17:44:25.864Z,98663.19
2022-08-22T17:47:17.637Z,98669.66
2022-08-22T17:50:13.912Z,98673.78
2022-08-22T17:53:05.464Z,98674.00
2022-08-22T17:56:00.583Z,98665.72
2022-08-22T17:59:21.123Z,98666.66
2022-08-22T18:02:17.034Z,98635.34
2022-08-22T18:05:16.222Z,98689.19
2022-08-22T18:08:02.475Z,98683.78
2022-08-22T18:10:58.030Z,98692.72
2022-08-22T18:14:05.072Z,98672.16
2022-08-22T18:16:55.583Z,98658.13
2022-08-22T18:20:29.779Z,98694.03
2022-08-22T18:23:39.274Z,98684.63
2022-08-22T18:26:41.713Z,98694.78
2022-08-22T18:29:45.006Z,98703.47
2022-08-22T18:32:39.837Z,98687.22
2022-08-22T18:35:42.884Z,98687.78
2022-08-22T18:38:49.913Z,98696.91
2022-08-22T18:41:55.650Z,98711.13
2022-08-22T18:44:45.152Z,98662.41
2022-08-22T18:47:34.427Z,98712.50
2022-08-22T18:50:30.259Z,98719.25
2022-08-22T18:53:38.193Z,98707.38
2022-08-22T18:56:24.626Z,98719.63
2022-08-22T18:59:20.091Z,98729.31
2022-08-22T19:02:55.579Z,98721.78
2022-08-22T19:05:58.038Z,98734.09
2022-08-22T19:09:18.479Z,98737.19
2022-08-22T19:12:23.816Z,98731.56
2022-08-22T19:15:25.517Z,98742.16
2022-08-22T19:18:53.308Z,98695.88
2022-08-22T19:22:22.841Z,98743.50
2022-08-22T19:25:19.377Z,98741.63
2022-08-22T19:28:09.426Z,98746.38
2022-08-22T19:31:23.248Z,98745.72
2022-08-22T19:34:33.992Z,98743.56
2022-08-22T19:37:32.101Z,98751.72
2022-08-22T19:40:45.073Z,98751.00
2022-08-22T19:43:34.698Z,98750.31
2022-08-22T19:46:36.779Z,98717.53
2022-08-22T19:49:33.384Z,98744.06
2022-08-22T19:52:49.442Z,98720.41
2022-08-22T19:55:39.027Z,98755.13
2022-08-22T19:58:46.758Z,98752.34
2022-08-22T20:01:45.824Z,98725.75
2022-08-22T20:04:46.434Z,98726.94
2022-08-22T20:07:42.118Z,98748.06
2022-08-22T20:10:31.211Z,98752.25
2022-08-22T20:13:24.241Z,98751.88
2022-08-22T20:16:18.934Z,98753.94
2022-08-22T20:19:08.944Z,98763.97
2022-08-22T20:22:02.169Z,98760.94
2022-08-22T20:25:41.619Z,98776.22
2022-08-22T20:28:32.280Z,98778.56
2022-08-22T20:31:22.844Z,98785.88
2022-08-22T20:34:21.584Z,98744.41
2022-08-22T20:37:29.616Z,98769.22
2022-08-22T20:40:56.359Z,98729.31
2022-08-22T20:43:48.507Z,98769.78
2022-08-22T20:46:55.320Z,98787.97
2022-08-22T20:49:48.657Z,98785.88
2022-08-22T20:52:42.630Z,98791.41
2022-08-22T20:55:38.499Z,98764.41
2022-08-22T20:58:35.505Z,98756.53
2022-08-22T21:01:24.671Z,98767.78
2022-08-22T21:04:11.630Z,98795.44
2022-08-22T21:07:01.725Z,98795.47
2022-08-22T21:10:14.304Z,98771.22
2022-08-22T21:13:13.040Z,98785.59
2022-08-22T21:16:12.885Z,98804.78
2022-08-22T21:19:03.293Z,98810.22
2022-08-22T21:21:49.924Z,98774.53
2022-08-22T21:24:36.528Z,98796.81
2022-08-22T21:27:28.546Z,98798.84
2022-08-22T21:30:25.462Z,98802.28
2022-08-22T21:33:15.456Z,98789.09
2022-08-22T21:36:15.137Z,98806.31
2022-08-22T21:39:12.127Z,98779.16
2022-08-22T21:42:01.419Z,98806.31
2022-08-22T21:44:59.612Z,98804.25
2022-08-22T21:47:46.351Z,98816.38
2022-08-22T21:50:38.365Z,98821.84
2022-08-22T21:53:27.974Z,98822.09
2022-08-22T21:56:16.887Z,98810.28
2022-08-22T21:59:24.927Z,98782.22
2022-08-22T22:02:27.395Z,98818.47
2022-08-22T22:05:16.270Z,98821.22
2022-08-22T22:08:04.293Z,98740.19
2022-08-22T22:10:53.206Z,98822.50
2022-08-22T22:13:40.085Z,98820.97
2022-08-22T22:16:28.645Z,98824.59
2022-08-22T22:19:15.101Z,98785.28
2022-08-22T22:22:02.070Z,98809.69
2022-08-22T22:24:48.198Z,98789.47
2022-08-22T22:27:34.674Z,98811.22
2022-08-22T22:30:21.242Z,98816.69
2022-08-22T22:33:08.322Z,98805.78
2022-08-22T22:35:57.076Z,98850.44
2022-08-22T22:38:44.153Z,98853.13
2022-08-22T22:41:30.717Z,98822.63
2022-08-22T22:44:17.146Z,98848.53
2022-08-22T22:47:08.134Z,98844.34
2022-08-22T22:49:55.821Z,98820.31
2022-08-22T22:52:42.338Z,98841.19
2022-08-22T22:55:29.489Z,98873.72
2022-08-22T22:58:17.723Z,98871.28
2022-08-22T23:01:15.924Z,98826.69
2022-08-22T23:04:05.610Z,98847.22
2022-08-22T23:06:52.435Z,98867.94
2022-08-22T23:09:44.901Z,98873.13
2022-08-22T23:12:31.944Z,98873.19
2022-08-22T23:15:18.247Z,98828.75
2022-08-22T23:18:04.734Z,98829.75
2022-08-22T23:20:50.886Z,98824.91
2022-08-22T23:23:37.705Z,98846.13
2022-08-22T23:26:24.641Z,98883.97
2022-08-22T23:29:12.034Z,98891.41
2022-08-22T23:32:01.510Z,98842.69
2022-08-22T23:34:48.742Z,98894.31
2022-08-22T23:37:35.378Z,98883.25
2022-08-22T23:40:21.704Z,98901.53
2022-08-22T23:43:07.878Z,98851.81
2022-08-22T23:45:54.081Z,98872.53
2022-08-22T23:48:41.129Z,98881.13
2022-08-22T23:51:27.691Z,98887.41
2022-08-22T23:54:14.457Z,98890.13
2022-08-22T23:57:02.540Z,98889.38
2022-08-22T23:59:57.265Z,98857.47
